sensor_id;sensor_type;location;lat;lon;timestamp;temperature;humidity
63899;HTU21D;50070;-32.946;-60.652;2024-02-23T00:01:05;27.34;81.57
63899;HTU21D;50070;-32.946;-60.652;2024-02-23T00:03:32;27.29;83.04
63899;HTU21D;50070;-32.946;-60.652;2024-02-23T00:06:00;27.20;84.36
63899;HTU21D;50070;-32.946;-60.652;2024-02-23T00:08:27;27.12;86.16
63899;HTU21D;50070;-32.946;-60.652;2024-02-23T00:10:54;27.08;87.32
63899;HTU21D;50070;-32.946;-60.652;2024-02-23T00:13:20;26.58;90.56
63899;HTU21D;50070;-32.946;-60.652;2024-02-23T00:15:47;26.76;90.17
63899;HTU21D;50070;-32.946;-60.652;2024-02-23T00:18:13;26.46;91.83
63899;HTU21D;50070;-32.946;-60.652;2024-02-23T00:20:42;26.90;89.89
63899;HTU21D;50070;-32.946;-60.652;2024-02-23T00:23:09;26.95;90.12
63899;HTU21D;50070;-32.946;-60.652;2024-02-23T00:25:35;26.50;93.08
63899;HTU21D;50070;-32.946;-60.652;2024-02-23T00:28:02;26.32;93.71
63899;HTU21D;50070;-32.946;-60.652;2024-02-23T00:30:28;26.34;92.92
63899;HTU21D;50070;-32.946;-60.652;2024-02-23T00:32:55;26.08;94.19
63899;HTU21D;50070;-32.946;-60.652;2024-02-23T00:35:22;26.20;92.71
63899;HTU21D;50070;-32.946;-60.652;2024-02-23T00:37:48;26.06;93.62
63899;HTU21D;50070;-32.946;-60.652;2024-02-23T00:40:15;26.09;93.07
63899;HTU21D;50070;-32.946;-60.652;2024-02-23T00:42:42;25.99;93.79
63899;HTU21D;50070;-32.946;-60.652;2024-02-23T00:45:09;26.18;92.32
63899;HTU21D;50070;-32.946;-60.652;2024-02-23T00:47:36;25.99;93.11
63899;HTU21D;50070;-32.946;-60.652;2024-02-23T00:50:04;26.32;91.85
63899;HTU21D;50070;-32.946;-60.652;2024-02-23T00:52:31;25.94;94.78
63899;HTU21D;50070;-32.946;-60.652;2024-02-23T00:54:58;25.90;95.24
63899;HTU21D;50070;-32.946;-60.652;2024-02-23T00:57:25;25.65;96.92
63899;HTU21D;50070;-32.946;-60.652;2024-02-23T00:59:58;25.33;98.31
63899;HTU21D;50070;-32.946;-60.652;2024-02-23T01:02:25;25.45;98.32
63899;HTU21D;50070;-32.946;-60.652;2024-02-23T01:04:52;25.53;97.88
63899;HTU21D;50070;-32.946;-60.652;2024-02-23T01:07:23;25.46;99.00
63899;HTU21D;50070;-32.946;-60.652;2024-02-23T01:09:50;25.29;99.98
63899;HTU21D;50070;-32.946;-60.652;2024-02-23T01:12:17;25.06;101.03
63899;HTU21D;50070;-32.946;-60.652;2024-02-23T01:14:44;25.00;101.44
63899;HTU21D;50070;-32.946;-60.652;2024-02-23T01:17:10;24.84;102.52
63899;HTU21D;50070;-32.946;-60.652;2024-02-23T01:19:38;24.90;101.80
63899;HTU21D;50070;-32.946;-60.652;2024-02-23T01:22:04;25.20;100.41
63899;HTU21D;50070;-32.946;-60.652;2024-02-23T01:24:31;25.08;100.40
63899;HTU21D;50070;-32.946;-60.652;2024-02-23T01:26:58;25.28;99.13
63899;HTU21D;50070;-32.946;-60.652;2024-02-23T01:29:26;24.89;101.15
63899;HTU21D;50070;-32.946;-60.652;2024-02-23T01:31:53;24.98;100.36
63899;HTU21D;50070;-32.946;-60.652;2024-02-23T01:34:23;25.17;99.50
63899;HTU21D;50070;-32.946;-60.652;2024-02-23T01:36:49;24.94;100.42
63899;HTU21D;50070;-32.946;-60.652;2024-02-23T01:39:16;25.20;99.07
63899;HTU21D;50070;-32.946;-60.652;2024-02-23T01:41:43;25.39;98.05
63899;HTU21D;50070;-32.946;-60.652;2024-02-23T01:44:11;25.33;98.74
63899;HTU21D;50070;-32.946;-60.652;2024-02-23T01:46:38;25.13;100.37
63899;HTU21D;50070;-32.946;-60.652;2024-02-23T01:49:06;25.12;100.54
63899;HTU21D;50070;-32.946;-60.652;2024-02-23T01:51:34;25.27;100.17
63899;HTU21D;50070;-32.946;-60.652;2024-02-23T01:54:01;25.13;101.26
63899;HTU21D;50070;-32.946;-60.652;2024-02-23T01:56:29;25.32;100.01
63899;HTU21D;50070;-32.946;-60.652;2024-02-23T01:58:56;24.99;103.09
63899;HTU21D;50070;-32.946;-60.652;2024-02-23T02:01:23;24.92;103.84
63899;HTU21D;50070;-32.946;-60.652;2024-02-23T02:03:51;25.09;103.73
63899;HTU21D;50070;-32.946;-60.652;2024-02-23T02:06:18;24.99;105.27
63899;HTU21D;50070;-32.946;-60.652;2024-02-23T02:08:46;25.12;105.66
63899;HTU21D;50070;-32.946;-60.652;2024-02-23T02:11:12;25.18;104.97
63899;HTU21D;50070;-32.946;-60.652;2024-02-23T02:13:39;25.06;106.01
63899;HTU21D;50070;-32.946;-60.652;2024-02-23T02:16:06;24.88;107.20
63899;HTU21D;50070;-32.946;-60.652;2024-02-23T02:18:33;24.86;107.85
63899;HTU21D;50070;-32.946;-60.652;2024-02-23T02:21:00;25.06;106.63
63899;HTU21D;50070;-32.946;-60.652;2024-02-23T02:23:27;24.49;110.78
63899;HTU21D;50070;-32.946;-60.652;2024-02-23T02:25:58;24.61;110.32
63899;HTU21D;50070;-32.946;-60.652;2024-02-23T02:28:25;24.49;111.41
63899;HTU21D;50070;-32.946;-60.652;2024-02-23T02:30:52;24.54;110.74
63899;HTU21D;50070;-32.946;-60.652;2024-02-23T02:33:19;24.42;111.27
63899;HTU21D;50070;-32.946;-60.652;2024-02-23T02:35:46;24.59;110.24
63899;HTU21D;50070;-32.946;-60.652;2024-02-23T02:38:13;24.57;110.12
63899;HTU21D;50070;-32.946;-60.652;2024-02-23T02:40:40;24.84;108.20
63899;HTU21D;50070;-32.946;-60.652;2024-02-23T02:43:07;24.68;108.49
63899;HTU21D;50070;-32.946;-60.652;2024-02-23T02:45:34;24.42;109.55
63899;HTU21D;50070;-32.946;-60.652;2024-02-23T02:48:03;24.55;107.91
63899;HTU21D;50070;-32.946;-60.652;2024-02-23T02:50:30;24.62;107.49
63899;HTU21D;50070;-32.946;-60.652;2024-02-23T02:52:57;24.63;106.27
63899;HTU21D;50070;-32.946;-60.652;2024-02-23T02:55:24;24.43;106.51
63899;HTU21D;50070;-32.946;-60.652;2024-02-23T02:57:50;24.60;105.58
63899;HTU21D;50070;-32.946;-60.652;2024-02-23T03:00:17;24.40;106.38
63899;HTU21D;50070;-32.946;-60.652;2024-02-23T03:02:44;24.54;105.53
63899;HTU21D;50070;-32.946;-60.652;2024-02-23T03:05:11;24.47;106.12
63899;HTU21D;50070;-32.946;-60.652;2024-02-23T03:07:37;24.61;105.56
63899;HTU21D;50070;-32.946;-60.652;2024-02-23T03:10:05;24.66;105.51
63899;HTU21D;50070;-32.946;-60.652;2024-02-23T03:12:32;24.93;103.73
63899;HTU21D;50070;-32.946;-60.652;2024-02-23T03:14:59;24.77;105.20
63899;HTU21D;50070;-32.946;-60.652;2024-02-23T03:17:26;24.77;105.28
63899;HTU21D;50070;-32.946;-60.652;2024-02-23T03:19:52;24.59;106.72
63899;HTU21D;50070;-32.946;-60.652;2024-02-23T03:22:19;24.69;107.17
63899;HTU21D;50070;-32.946;-60.652;2024-02-23T03:24:46;24.64;107.56
63899;HTU21D;50070;-32.946;-60.652;2024-02-23T03:27:13;24.58;107.84
63899;HTU21D;50070;-32.946;-60.652;2024-02-23T03:29:40;24.69;107.54
63899;HTU21D;50070;-32.946;-60.652;2024-02-23T03:32:07;24.75;106.55
63899;HTU21D;50070;-32.946;-60.652;2024-02-23T03:34:35;24.63;106.74
63899;HTU21D;50070;-32.946;-60.652;2024-02-23T03:37:03;24.54;107.38
63899;HTU21D;50070;-32.946;-60.652;2024-02-23T03:39:30;24.95;104.45
63899;HTU21D;50070;-32.946;-60.652;2024-02-23T03:41:58;24.74;104.22
63899;HTU21D;50070;-32.946;-60.652;2024-02-23T03:44:24;24.25;105.92
63899;HTU21D;50070;-32.946;-60.652;2024-02-23T03:46:51;24.32;105.53
63899;HTU21D;50070;-32.946;-60.652;2024-02-23T03:49:18;24.45;103.95
63899;HTU21D;50070;-32.946;-60.652;2024-02-23T03:51:45;24.32;104.47
63899;HTU21D;50070;-32.946;-60.652;2024-02-23T03:54:12;24.19;105.48
63899;HTU21D;50070;-32.946;-60.652;2024-02-23T03:56:39;24.24;105.25
63899;HTU21D;50070;-32.946;-60.652;2024-02-23T03:59:07;24.34;104.87
63899;HTU21D;50070;-32.946;-60.652;2024-02-23T04:01:38;24.26;105.72
63899;HTU21D;50070;-32.946;-60.652;2024-02-23T04:04:06;24.36;105.18
63899;HTU21D;50070;-32.946;-60.652;2024-02-23T04:06:33;24.34;105.92
63899;HTU21D;50070;-32.946;-60.652;2024-02-23T04:08:59;24.19;107.85
63899;HTU21D;50070;-32.946;-60.652;2024-02-23T04:11:26;24.04;108.27
63899;HTU21D;50070;-32.946;-60.652;2024-02-23T04:13:52;24.03;107.30
63899;HTU21D;50070;-32.946;-60.652;2024-02-23T04:16:23;24.05;106.37
63899;HTU21D;50070;-32.946;-60.652;2024-02-23T04:18:51;24.20;105.08
63899;HTU21D;50070;-32.946;-60.652;2024-02-23T04:21:17;23.89;106.46
63899;HTU21D;50070;-32.946;-60.652;2024-02-23T04:23:44;23.87;105.62
63899;HTU21D;50070;-32.946;-60.652;2024-02-23T04:26:11;24.01;105.03
63899;HTU21D;50070;-32.946;-60.652;2024-02-23T04:28:39;23.77;106.43
63899;HTU21D;50070;-32.946;-60.652;2024-02-23T04:31:09;23.58;107.92
63899;HTU21D;50070;-32.946;-60.652;2024-02-23T04:33:37;23.80;106.46
63899;HTU21D;50070;-32.946;-60.652;2024-02-23T04:36:04;23.87;106.04
63899;HTU21D;50070;-32.946;-60.652;2024-02-23T04:38:33;23.71;107.07
63899;HTU21D;50070;-32.946;-60.652;2024-02-23T04:41:04;23.87;105.79
63899;HTU21D;50070;-32.946;-60.652;2024-02-23T04:43:31;23.98;104.95
63899;HTU21D;50070;-32.946;-60.652;2024-02-23T04:45:58;23.85;105.72
63899;HTU21D;50070;-32.946;-60.652;2024-02-23T04:48:25;23.58;106.96
63899;HTU21D;50070;-32.946;-60.652;2024-02-23T04:50:51;23.54;107.14
63899;HTU21D;50070;-32.946;-60.652;2024-02-23T04:53:18;23.50;107.39
63899;HTU21D;50070;-32.946;-60.652;2024-02-23T04:55:46;23.76;105.94
63899;HTU21D;50070;-32.946;-60.652;2024-02-23T04:58:17;23.87;105.50
63899;HTU21D;50070;-32.946;-60.652;2024-02-23T05:00:43;23.62;106.75
63899;HTU21D;50070;-32.946;-60.652;2024-02-23T05:03:10;23.64;106.34
63899;HTU21D;50070;-32.946;-60.652;2024-02-23T05:05:37;23.68;107.02
63899;HTU21D;50070;-32.946;-60.652;2024-02-23T05:08:04;23.75;106.66
63899;HTU21D;50070;-32.946;-60.652;2024-02-23T05:10:31;23.89;105.83
63899;HTU21D;50070;-32.946;-60.652;2024-02-23T05:12:58;23.71;107.02
63899;HTU21D;50070;-32.946;-60.652;2024-02-23T05:15:25;23.68;107.13
63899;HTU21D;50070;-32.946;-60.652;2024-02-23T05:17:52;24.10;105.73
63899;HTU21D;50070;-32.946;-60.652;2024-02-23T05:20:18;24.39;103.92
63899;HTU21D;50070;-32.946;-60.652;2024-02-23T05:22:45;24.13;105.26
63899;HTU21D;50070;-32.946;-60.652;2024-02-23T05:25:12;23.74;106.27
63899;HTU21D;50070;-32.946;-60.652;2024-02-23T05:27:39;23.69;105.87
63899;HTU21D;50070;-32.946;-60.652;2024-02-23T05:30:06;23.40;107.27
63899;HTU21D;50070;-32.946;-60.652;2024-02-23T05:32:33;23.37;107.08
63899;HTU21D;50070;-32.946;-60.652;2024-02-23T05:34:59;23.22;107.77
63899;HTU21D;50070;-32.946;-60.652;2024-02-23T05:37:26;23.29;106.54
63899;HTU21D;50070;-32.946;-60.652;2024-02-23T05:39:53;23.16;107.59
63899;HTU21D;50070;-32.946;-60.652;2024-02-23T05:42:20;23.53;105.33
63899;HTU21D;50070;-32.946;-60.652;2024-02-23T05:44:46;23.29;106.50
63899;HTU21D;50070;-32.946;-60.652;2024-02-23T05:47:14;23.28;106.55
63899;HTU21D;50070;-32.946;-60.652;2024-02-23T05:49:41;23.17;107.08
63899;HTU21D;50070;-32.946;-60.652;2024-02-23T05:52:08;23.26;106.73
63899;HTU21D;50070;-32.946;-60.652;2024-02-23T05:54:36;22.94;108.66
63899;HTU21D;50070;-32.946;-60.652;2024-02-23T05:57:02;23.36;106.43
63899;HTU21D;50070;-32.946;-60.652;2024-02-23T05:59:29;23.01;108.54
63899;HTU21D;50070;-32.946;-60.652;2024-02-23T06:01:56;23.24;107.48
63899;HTU21D;50070;-32.946;-60.652;2024-02-23T06:04:24;23.10;108.14
63899;HTU21D;50070;-32.946;-60.652;2024-02-23T06:06:50;23.05;108.32
63899;HTU21D;50070;-32.946;-60.652;2024-02-23T06:09:17;23.12;108.04
63899;HTU21D;50070;-32.946;-60.652;2024-02-23T06:11:45;22.76;109.89
63899;HTU21D;50070;-32.946;-60.652;2024-02-23T06:14:12;22.72;110.24
63899;HTU21D;50070;-32.946;-60.652;2024-02-23T06:16:39;22.95;108.53
63899;HTU21D;50070;-32.946;-60.652;2024-02-23T06:19:06;22.48;111.77
63899;HTU21D;50070;-32.946;-60.652;2024-02-23T06:21:33;22.68;110.20
63899;HTU21D;50070;-32.946;-60.652;2024-02-23T06:24:00;23.21;107.03
63899;HTU21D;50070;-32.946;-60.652;2024-02-23T06:26:27;23.05;108.03
63899;HTU21D;50070;-32.946;-60.652;2024-02-23T06:28:53;23.38;106.28
63899;HTU21D;50070;-32.946;-60.652;2024-02-23T06:31:20;23.15;107.72
63899;HTU21D;50070;-32.946;-60.652;2024-02-23T06:33:47;23.28;107.18
63899;HTU21D;50070;-32.946;-60.652;2024-02-23T06:36:15;23.27;107.37
63899;HTU21D;50070;-32.946;-60.652;2024-02-23T06:38:42;23.28;107.24
63899;HTU21D;50070;-32.946;-60.652;2024-02-23T06:41:08;23.24;107.99
63899;HTU21D;50070;-32.946;-60.652;2024-02-23T06:43:37;23.02;109.12
63899;HTU21D;50070;-32.946;-60.652;2024-02-23T06:46:08;22.95;109.57
63899;HTU21D;50070;-32.946;-60.652;2024-02-23T06:48:35;23.24;108.57
63899;HTU21D;50070;-32.946;-60.652;2024-02-23T06:51:06;23.02;109.57
63899;HTU21D;50070;-32.946;-60.652;2024-02-23T06:53:36;22.81;111.07
63899;HTU21D;50070;-32.946;-60.652;2024-02-23T06:56:04;22.72;111.89
63899;HTU21D;50070;-32.946;-60.652;2024-02-23T06:58:30;23.27;108.38
63899;HTU21D;50070;-32.946;-60.652;2024-02-23T07:00:57;23.31;108.01
63899;HTU21D;50070;-32.946;-60.652;2024-02-23T07:03:23;23.08;109.49
63899;HTU21D;50070;-32.946;-60.652;2024-02-23T07:05:50;22.91;110.22
63899;HTU21D;50070;-32.946;-60.652;2024-02-23T07:08:17;23.02;109.62
63899;HTU21D;50070;-32.946;-60.652;2024-02-23T07:10:44;23.51;106.90
63899;HTU21D;50070;-32.946;-60.652;2024-02-23T07:13:11;23.50;106.88
63899;HTU21D;50070;-32.946;-60.652;2024-02-23T07:15:38;23.03;109.20
63899;HTU21D;50070;-32.946;-60.652;2024-02-23T07:18:05;22.96;110.01
63899;HTU21D;50070;-32.946;-60.652;2024-02-23T07:20:36;22.92;109.72
63899;HTU21D;50070;-32.946;-60.652;2024-02-23T07:23:03;23.22;107.88
63899;HTU21D;50070;-32.946;-60.652;2024-02-23T07:25:29;23.21;107.86
63899;HTU21D;50070;-32.946;-60.652;2024-02-23T07:27:57;23.30;107.30
63899;HTU21D;50070;-32.946;-60.652;2024-02-23T07:30:24;23.20;108.37
63899;HTU21D;50070;-32.946;-60.652;2024-02-23T07:32:51;23.21;108.44
63899;HTU21D;50070;-32.946;-60.652;2024-02-23T07:35:18;22.91;110.44
63899;HTU21D;50070;-32.946;-60.652;2024-02-23T07:37:44;22.88;110.46
63899;HTU21D;50070;-32.946;-60.652;2024-02-23T07:40:12;22.60;112.89
63899;HTU21D;50070;-32.946;-60.652;2024-02-23T07:42:39;22.98;111.39
63899;HTU21D;50070;-32.946;-60.652;2024-02-23T07:45:07;22.86;112.01
63899;HTU21D;50070;-32.946;-60.652;2024-02-23T07:47:35;22.93;112.42
63899;HTU21D;50070;-32.946;-60.652;2024-02-23T07:50:02;23.00;111.93
63899;HTU21D;50070;-32.946;-60.652;2024-02-23T07:52:28;22.93;112.39
63899;HTU21D;50070;-32.946;-60.652;2024-02-23T07:54:55;23.07;112.55
63899;HTU21D;50070;-32.946;-60.652;2024-02-23T07:57:22;23.31;112.29
63899;HTU21D;50070;-32.946;-60.652;2024-02-23T07:59:49;23.21;113.06
63899;HTU21D;50070;-32.946;-60.652;2024-02-23T08:02:16;22.99;114.44
63899;HTU21D;50070;-32.946;-60.652;2024-02-23T08:04:42;23.02;114.48
63899;HTU21D;50070;-32.946;-60.652;2024-02-23T08:07:10;22.98;116.18
63899;HTU21D;50070;-32.946;-60.652;2024-02-23T08:09:37;23.10;116.41
63899;HTU21D;50070;-32.946;-60.652;2024-02-23T08:12:04;23.06;117.25
63899;HTU21D;50070;-32.946;-60.652;2024-02-23T08:14:31;22.96;118.40
63899;HTU21D;50070;-32.946;-60.652;2024-02-23T08:16:59;22.92;118.99
63899;HTU21D;50070;-32.946;-60.652;2024-02-23T08:19:25;22.76;118.99
63899;HTU21D;50070;-32.946;-60.652;2024-02-23T08:21:52;22.60;118.99
63899;HTU21D;50070;-32.946;-60.652;2024-02-23T08:24:19;22.65;118.99
63899;HTU21D;50070;-32.946;-60.652;2024-02-23T08:26:46;22.57;118.99
63899;HTU21D;50070;-32.946;-60.652;2024-02-23T08:29:13;22.48;118.99
63899;HTU21D;50070;-32.946;-60.652;2024-02-23T08:31:39;22.46;118.99
63899;HTU21D;50070;-32.946;-60.652;2024-02-23T08:34:06;22.49;118.99
63899;HTU21D;50070;-32.946;-60.652;2024-02-23T08:36:33;22.26;118.99
63899;HTU21D;50070;-32.946;-60.652;2024-02-23T08:39:00;22.33;118.99
63899;HTU21D;50070;-32.946;-60.652;2024-02-23T08:41:26;22.21;118.99
63899;HTU21D;50070;-32.946;-60.652;2024-02-23T08:43:53;22.18;118.99
63899;HTU21D;50070;-32.946;-60.652;2024-02-23T08:46:21;21.93;118.99
63899;HTU21D;50070;-32.946;-60.652;2024-02-23T08:48:48;22.21;118.99
63899;HTU21D;50070;-32.946;-60.652;2024-02-23T08:51:15;22.26;118.99
63899;HTU21D;50070;-32.946;-60.652;2024-02-23T08:53:42;22.39;118.99
63899;HTU21D;50070;-32.946;-60.652;2024-02-23T08:56:09;22.38;118.99
63899;HTU21D;50070;-32.946;-60.652;2024-02-23T08:58:36;22.32;118.99
63899;HTU21D;50070;-32.946;-60.652;2024-02-23T09:01:03;22.39;118.99
63899;HTU21D;50070;-32.946;-60.652;2024-02-23T09:03:30;22.18;118.99
63899;HTU21D;50070;-32.946;-60.652;2024-02-23T09:05:57;22.16;118.99
63899;HTU21D;50070;-32.946;-60.652;2024-02-23T09:08:24;22.13;118.99
63899;HTU21D;50070;-32.946;-60.652;2024-02-23T09:10:51;22.03;118.99
63899;HTU21D;50070;-32.946;-60.652;2024-02-23T09:13:18;22.34;118.99
63899;HTU21D;50070;-32.946;-60.652;2024-02-23T09:15:44;22.24;118.99
63899;HTU21D;50070;-32.946;-60.652;2024-02-23T09:18:11;22.25;118.99
63899;HTU21D;50070;-32.946;-60.652;2024-02-23T09:20:38;22.22;118.99
63899;HTU21D;50070;-32.946;-60.652;2024-02-23T09:23:05;22.18;118.99
63899;HTU21D;50070;-32.946;-60.652;2024-02-23T09:25:32;21.84;118.99
63899;HTU21D;50070;-32.946;-60.652;2024-02-23T09:27:58;22.06;118.99
63899;HTU21D;50070;-32.946;-60.652;2024-02-23T09:30:25;22.06;118.99
63899;HTU21D;50070;-32.946;-60.652;2024-02-23T09:32:52;21.84;118.99
63899;HTU21D;50070;-32.946;-60.652;2024-02-23T09:35:19;21.74;118.99
63899;HTU21D;50070;-32.946;-60.652;2024-02-23T09:37:46;21.73;118.99
63899;HTU21D;50070;-32.946;-60.652;2024-02-23T09:40:13;22.07;118.99
63899;HTU21D;50070;-32.946;-60.652;2024-02-23T09:42:42;22.18;118.99
63899;HTU21D;50070;-32.946;-60.652;2024-02-23T09:45:11;21.98;118.99
63899;HTU21D;50070;-32.946;-60.652;2024-02-23T09:47:38;21.84;118.99
63899;HTU21D;50070;-32.946;-60.652;2024-02-23T09:50:06;21.82;118.99
63899;HTU21D;50070;-32.946;-60.652;2024-02-23T09:52:35;21.87;118.99
63899;HTU21D;50070;-32.946;-60.652;2024-02-23T09:55:02;21.84;118.99
63899;HTU21D;50070;-32.946;-60.652;2024-02-23T09:57:30;21.85;118.99
63899;HTU21D;50070;-32.946;-60.652;2024-02-23T09:59:56;21.82;118.99
63899;HTU21D;50070;-32.946;-60.652;2024-02-23T10:02:24;21.72;118.99
63899;HTU21D;50070;-32.946;-60.652;2024-02-23T10:04:51;21.79;118.99
63899;HTU21D;50070;-32.946;-60.652;2024-02-23T10:07:20;21.99;118.99
63899;HTU21D;50070;-32.946;-60.652;2024-02-23T10:09:47;21.76;118.99
63899;HTU21D;50070;-32.946;-60.652;2024-02-23T10:12:15;21.76;118.99
63899;HTU21D;50070;-32.946;-60.652;2024-02-23T10:14:42;21.59;118.99
63899;HTU21D;50070;-32.946;-60.652;2024-02-23T10:17:09;21.58;118.99
63899;HTU21D;50070;-32.946;-60.652;2024-02-23T10:19:35;21.62;118.99
63899;HTU21D;50070;-32.946;-60.652;2024-02-23T10:22:02;21.60;118.99
63899;HTU21D;50070;-32.946;-60.652;2024-02-23T10:24:29;21.64;118.99
63899;HTU21D;50070;-32.946;-60.652;2024-02-23T10:26:56;21.70;118.99
63899;HTU21D;50070;-32.946;-60.652;2024-02-23T10:29:23;21.47;118.99
63899;HTU21D;50070;-32.946;-60.652;2024-02-23T10:31:52;21.25;118.99
63899;HTU21D;50070;-32.946;-60.652;2024-02-23T10:34:20;21.34;118.99
63899;HTU21D;50070;-32.946;-60.652;2024-02-23T10:36:47;21.39;118.99
63899;HTU21D;50070;-32.946;-60.652;2024-02-23T10:39:17;21.46;118.99
63899;HTU21D;50070;-32.946;-60.652;2024-02-23T10:41:58;21.51;118.99
63899;HTU21D;50070;-32.946;-60.652;2024-02-23T10:44:28;21.31;118.99
63899;HTU21D;50070;-32.946;-60.652;2024-02-23T10:46:57;21.70;118.99
63899;HTU21D;50070;-32.946;-60.652;2024-02-23T10:49:26;21.72;118.99
63899;HTU21D;50070;-32.946;-60.652;2024-02-23T10:51:54;21.72;118.99
63899;HTU21D;50070;-32.946;-60.652;2024-02-23T10:54:21;21.67;118.99
63899;HTU21D;50070;-32.946;-60.652;2024-02-23T10:56:50;21.51;118.99
63899;HTU21D;50070;-32.946;-60.652;2024-02-23T10:59:18;21.83;118.99
63899;HTU21D;50070;-32.946;-60.652;2024-02-23T11:01:51;21.48;118.99
63899;HTU21D;50070;-32.946;-60.652;2024-02-23T11:04:20;21.68;118.99
63899;HTU21D;50070;-32.946;-60.652;2024-02-23T11:07:13;21.60;118.99
63899;HTU21D;50070;-32.946;-60.652;2024-02-23T11:09:40;21.67;118.99
63899;HTU21D;50070;-32.946;-60.652;2024-02-23T11:12:07;21.68;118.99
63899;HTU21D;50070;-32.946;-60.652;2024-02-23T11:14:39;21.60;118.99
63899;HTU21D;50070;-32.946;-60.652;2024-02-23T11:17:05;21.94;118.99
63899;HTU21D;50070;-32.946;-60.652;2024-02-23T11:19:37;22.03;118.99
63899;HTU21D;50070;-32.946;-60.652;2024-02-23T11:22:04;22.02;118.99
63899;HTU21D;50070;-32.946;-60.652;2024-02-23T11:24:32;22.21;118.99
63899;HTU21D;50070;-32.946;-60.652;2024-02-23T11:27:02;22.09;118.99
63899;HTU21D;50070;-32.946;-60.652;2024-02-23T11:29:36;22.03;118.99
63899;HTU21D;50070;-32.946;-60.652;2024-02-23T11:32:16;22.21;118.99
63899;HTU21D;50070;-32.946;-60.652;2024-02-23T11:34:55;22.29;118.99
63899;HTU21D;50070;-32.946;-60.652;2024-02-23T11:37:23;22.44;118.99
63899;HTU21D;50070;-32.946;-60.652;2024-02-23T11:39:50;22.47;118.99
63899;HTU21D;50070;-32.946;-60.652;2024-02-23T11:42:18;22.27;118.99
63899;HTU21D;50070;-32.946;-60.652;2024-02-23T11:44:45;21.96;118.99
63899;HTU21D;50070;-32.946;-60.652;2024-02-23T11:47:12;22.03;118.99
63899;HTU21D;50070;-32.946;-60.652;2024-02-23T11:49:39;22.12;118.99
63899;HTU21D;50070;-32.946;-60.652;2024-02-23T11:52:06;22.03;118.99
63899;HTU21D;50070;-32.946;-60.652;2024-02-23T11:54:33;21.88;118.99
63899;HTU21D;50070;-32.946;-60.652;2024-02-23T11:57:01;22.18;118.99
63899;HTU21D;50070;-32.946;-60.652;2024-02-23T11:59:27;22.07;118.99
63899;HTU21D;50070;-32.946;-60.652;2024-02-23T12:01:55;22.42;118.99
63899;HTU21D;50070;-32.946;-60.652;2024-02-23T12:04:21;22.36;118.99
63899;HTU21D;50070;-32.946;-60.652;2024-02-23T12:06:49;22.38;118.99
63899;HTU21D;50070;-32.946;-60.652;2024-02-23T12:09:16;22.32;118.99
63899;HTU21D;50070;-32.946;-60.652;2024-02-23T12:11:43;21.97;118.99
63899;HTU21D;50070;-32.946;-60.652;2024-02-23T12:14:10;22.17;118.99
63899;HTU21D;50070;-32.946;-60.652;2024-02-23T12:16:37;22.20;118.99
63899;HTU21D;50070;-32.946;-60.652;2024-02-23T12:19:08;22.26;118.99
63899;HTU21D;50070;-32.946;-60.652;2024-02-23T12:21:35;22.27;118.99
63899;HTU21D;50070;-32.946;-60.652;2024-02-23T12:24:05;22.24;118.99
63899;HTU21D;50070;-32.946;-60.652;2024-02-23T12:26:34;22.10;118.99
63899;HTU21D;50070;-32.946;-60.652;2024-02-23T12:29:02;22.43;118.99
63899;HTU21D;50070;-32.946;-60.652;2024-02-23T12:31:32;22.33;118.99
63899;HTU21D;50070;-32.946;-60.652;2024-02-23T12:33:59;22.37;118.99
63899;HTU21D;50070;-32.946;-60.652;2024-02-23T12:36:26;22.39;118.99
63899;HTU21D;50070;-32.946;-60.652;2024-02-23T12:38:53;22.41;118.99
63899;HTU21D;50070;-32.946;-60.652;2024-02-23T12:41:20;22.39;118.99
63899;HTU21D;50070;-32.946;-60.652;2024-02-23T12:43:47;22.12;118.99
63899;HTU21D;50070;-32.946;-60.652;2024-02-23T12:46:14;22.18;118.99
63899;HTU21D;50070;-32.946;-60.652;2024-02-23T12:48:41;22.32;118.99
63899;HTU21D;50070;-32.946;-60.652;2024-02-23T12:51:08;22.27;118.99
63899;HTU21D;50070;-32.946;-60.652;2024-02-23T12:53:37;22.21;118.99
63899;HTU21D;50070;-32.946;-60.652;2024-02-23T12:56:08;22.24;118.99
63899;HTU21D;50070;-32.946;-60.652;2024-02-23T12:58:39;22.25;118.99
63899;HTU21D;50070;-32.946;-60.652;2024-02-23T13:01:07;22.21;118.99
63899;HTU21D;50070;-32.946;-60.652;2024-02-23T13:03:35;22.16;118.99
63899;HTU21D;50070;-32.946;-60.652;2024-02-23T13:06:02;21.93;118.99
63899;HTU21D;50070;-32.946;-60.652;2024-02-23T13:08:29;21.83;118.99
63899;HTU21D;50070;-32.946;-60.652;2024-02-23T13:10:56;22.22;118.99
63899;HTU21D;50070;-32.946;-60.652;2024-02-23T13:13:24;22.43;118.99
63899;HTU21D;50070;-32.946;-60.652;2024-02-23T13:15:52;22.50;118.99
63899;HTU21D;50070;-32.946;-60.652;2024-02-23T13:18:19;22.50;118.99
63899;HTU21D;50070;-32.946;-60.652;2024-02-23T13:20:46;22.37;118.99
63899;HTU21D;50070;-32.946;-60.652;2024-02-23T13:23:12;22.28;118.99
63899;HTU21D;50070;-32.946;-60.652;2024-02-23T13:25:42;22.35;118.99
63899;HTU21D;50070;-32.946;-60.652;2024-02-23T13:28:09;22.09;118.99
63899;HTU21D;50070;-32.946;-60.652;2024-02-23T13:30:37;22.16;118.99
63899;HTU21D;50070;-32.946;-60.652;2024-02-23T13:33:04;22.35;118.99
63899;HTU21D;50070;-32.946;-60.652;2024-02-23T13:35:32;22.47;118.99
63899;HTU21D;50070;-32.946;-60.652;2024-02-23T13:37:59;22.54;118.99
63899;HTU21D;50070;-32.946;-60.652;2024-02-23T13:40:30;22.54;118.99
63899;HTU21D;50070;-32.946;-60.652;2024-02-23T13:42:57;22.60;118.99
63899;HTU21D;50070;-32.946;-60.652;2024-02-23T13:45:23;22.56;118.99
63899;HTU21D;50070;-32.946;-60.652;2024-02-23T13:48:01;22.64;118.99
63899;HTU21D;50070;-32.946;-60.652;2024-02-23T13:50:28;22.69;118.99
63899;HTU21D;50070;-32.946;-60.652;2024-02-23T13:52:55;22.71;118.99
63899;HTU21D;50070;-32.946;-60.652;2024-02-23T13:55:22;22.66;118.99
63899;HTU21D;50070;-32.946;-60.652;2024-02-23T13:57:50;22.64;118.99
63899;HTU21D;50070;-32.946;-60.652;2024-02-23T14:00:17;22.43;118.99
63899;HTU21D;50070;-32.946;-60.652;2024-02-23T14:02:45;22.84;118.99
63899;HTU21D;50070;-32.946;-60.652;2024-02-23T14:05:12;22.87;118.99
63899;HTU21D;50070;-32.946;-60.652;2024-02-23T14:07:39;22.88;118.99
63899;HTU21D;50070;-32.946;-60.652;2024-02-23T14:10:07;22.99;118.99
63899;HTU21D;50070;-32.946;-60.652;2024-02-23T14:12:34;22.86;118.99
63899;HTU21D;50070;-32.946;-60.652;2024-02-23T14:15:01;22.50;118.99
63899;HTU21D;50070;-32.946;-60.652;2024-02-23T14:17:28;22.81;118.99
63899;HTU21D;50070;-32.946;-60.652;2024-02-23T14:19:54;22.93;118.99
63899;HTU21D;50070;-32.946;-60.652;2024-02-23T14:22:22;23.08;118.99
63899;HTU21D;50070;-32.946;-60.652;2024-02-23T14:24:48;23.25;118.99